Time;durP1;ratioP1;P1;durP2;ratioP2;P2;SDS_P1;SDS_P2;PMS_P1;PMS_P2;Temp;Humidity;BMP_temperature;BMP_pressure;BME280_temperature;BME280_humidity;BME280_pressure;Samples;Min_cycle;Max_cycle;Signal;HPM_P1;HPM_P2
2023/04/05 00:33:06;;;;;;;16.55;6.32;;;;;;;-0.49;58.38;98293.59;5165112;27;20097;-80
2023/04/05 00:52:08;;;;;;;21.23;8.23;;;;;;;-0.41;57.58;98293.63;5036653;27;20107;-80
2023/04/05 00:54:35;;;;;;;16.15;7.47;;;;;;;-0.33;57.46;98294.50;4380632;27;20080;-80
2023/04/05 00:57:04;;;;;;;19.67;8.10;;;;;;;-0.56;57.54;98286.78;4371940;32;20091;-80
2023/04/05 00:59:31;;;;;;;17.42;7.28;;;;;;;-0.35;57.09;98289.41;4371652;32;20139;-80
2023/04/05 01:02:07;;;;;;;16.40;6.90;;;;;;;-0.24;56.66;98296.22;4385795;32;20452;-80
2023/04/05 01:07:41;;;;;;;17.87;6.70;;;;;;;-0.44;57.21;98291.06;4602770;27;20087;-82
2023/04/05 01:10:09;;;;;;;15.95;7.22;;;;;;;-0.36;56.39;98280.13;4371970;32;20104;-79
2023/04/05 01:12:36;;;;;;;16.60;7.28;;;;;;;-0.53;57.50;98284.28;4371726;32;20110;-79
2023/04/05 01:20:13;;;;;;;18.58;7.93;;;;;;;-0.40;56.97;98285.19;4354694;33;20122;-79
2023/04/05 01:22:58;;;;;;;16.98;7.70;;;;;;;0.09;55.21;98270.13;4355900;32;20083;-80
2023/04/05 01:25:41;;;;;;;21.77;8.25;;;;;;;-0.09;55.39;98286.16;4354750;32;20095;-80
2023/04/05 01:28:27;;;;;;;16.35;7.07;;;;;;;-0.44;56.35;98274.16;4355982;33;20064;-79
2023/04/05 01:31:08;;;;;;;16.95;7.28;;;;;;;-0.11;55.14;98277.66;4355076;33;20153;-80
2023/04/05 01:33:54;;;;;;;21.80;7.93;;;;;;;-0.76;56.58;98261.34;4366662;32;20111;-79
2023/04/05 01:44:27;;;;;;;19.75;7.70;;;;;;;-0.87;56.84;98262.97;4754370;27;20079;-79
2023/04/05 01:46:55;;;;;;;16.52;7.40;;;;;;;-0.84;57.19;98268.06;4370390;32;20067;-79
2023/04/05 01:49:22;;;;;;;20.48;8.38;;;;;;;-0.81;56.60;98272.28;4369749;32;20157;-79
2023/04/05 01:51:50;;;;;;;16.17;7.03;;;;;;;-0.67;56.80;98268.13;4370445;32;20781;-79
2023/04/05 01:54:17;;;;;;;15.93;7.50;;;;;;;-0.71;56.71;98263.91;4370142;32;20064;-79
2023/04/05 01:56:44;;;;;;;17.65;7.55;;;;;;;-0.64;56.73;98265.63;4370332;32;20466;-80
2023/04/05 01:59:11;;;;;;;16.90;6.85;;;;;;;-0.78;57.04;98262.16;4369948;32;20130;-79
2023/04/05 02:01:38;;;;;;;16.95;6.78;;;;;;;-0.94;57.62;98264.63;4370094;32;20095;-79
2023/04/05 02:04:05;;;;;;;;;;;;;;;-1.05;57.24;98271.31;4370227;32;20075;-79
2023/04/05 02:11:56;;;;;;;19.27;7.18;;;;;;;-1.09;57.52;98271.25;4416702;27;20083;-80
2023/04/05 02:14:23;;;;;;;20.52;8.10;;;;;;;-1.48;58.45;98270.97;4369519;32;20055;-80
2023/04/05 02:22:21;;;;;;;15.90;7.57;;;;;;;-0.87;56.29;98268.03;4676679;27;20067;-80
2023/04/05 02:24:48;;;;;;;16.23;7.32;;;;;;;-0.78;56.18;98268.09;4370100;32;20094;-80
2023/04/05 02:38:09;;;;;;;20.30;8.00;;;;;;;-0.54;55.14;98272.44;5082496;27;20043;-81
2023/04/05 02:40:36;;;;;;;16.85;7.70;;;;;;;-0.45;55.47;98269.09;4385334;32;20076;-81
2023/04/05 02:43:03;;;;;;;19.17;8.13;;;;;;;-0.84;56.29;98278.19;4384758;32;20427;-81
2023/04/05 02:53:50;;;;;;;21.27;8.32;;;;;;;-0.39;55.10;98267.44;4804739;27;20103;-80
2023/04/05 03:37:19;;;;;;;18.20;8.10;;;;;;;-1.63;60.75;98265.78;4370038;32;20064;-80
2023/04/05 03:39:46;;;;;;;19.73;8.23;;;;;;;-1.60;60.84;98264.94;4371363;32;20159;-80
2023/04/05 03:42:14;;;;;;;20.23;7.78;;;;;;;-1.96;62.00;98276.41;4371710;32;20082;-80
2023/04/05 03:44:41;;;;;;;18.87;8.48;;;;;;;-1.98;62.18;98279.75;4371513;32;20086;-80
2023/04/05 03:49:44;;;;;;;20.90;8.32;;;;;;;-1.74;61.48;98274.94;4890101;27;20228;-80
2023/04/05 04:09:04;;;;;;;18.17;7.72;;;;;;;-1.97;62.34;98279.78;5140425;27;20257;-79
2023/04/05 04:11:31;;;;;;;19.92;8.80;;;;;;;-1.89;62.66;98280.72;4385052;32;20098;-79
2023/04/05 04:13:58;;;;;;;18.12;8.15;;;;;;;-1.99;62.76;98280.59;4384770;32;20095;-79
2023/04/05 04:16:25;;;;;;;20.20;8.13;;;;;;;-2.14;63.59;98279.56;4660306;27;20085;-79
2023/04/05 04:18:58;;;;;;;19.15;6.90;;;;;;;-1.66;61.98;98260.69;4385301;32;20078;-79
2023/04/05 04:21:25;;;;;;;20.17;8.35;;;;;;;-1.86;62.36;98280.72;4372583;32;20144;-79
2023/04/05 04:23:52;;;;;;;18.95;8.45;;;;;;;-2.19;63.46;98283.75;4386153;32;20090;-79
2023/04/05 04:28:54;;;;;;;20.12;7.62;;;;;;;-2.18;64.00;98272.81;4432282;27;20843;-79
2023/04/05 04:31:21;;;;;;;16.00;6.65;;;;;;;-2.01;63.64;98275.53;4385159;32;20083;-79
2023/04/05 04:33:49;;;;;;;20.25;8.07;;;;;;;-2.42;65.79;98280.97;4384253;32;20103;-79
2023/04/05 04:36:16;;;;;;;18.87;7.82;;;;;;;-2.33;65.11;98286.13;4459978;27;20115;-79
2023/04/05 04:48:25;;;;;;;16.27;7.25;;;;;;;-2.10;63.59;98280.47;4988628;27;20059;-79
2023/04/05 04:50:53;;;;;;;22.30;8.93;;;;;;;-2.04;63.05;98288.13;4384055;32;20083;-79
2023/04/05 04:53:20;;;;;;;17.55;6.72;;;;;;;-1.28;60.76;98281.25;4383427;32;20062;-79
2023/04/05 04:58:25;;;;;;;20.12;7.75;;;;;;;-2.12;63.23;98284.69;4721735;27;20150;-79
2023/04/05 05:16:23;;;;;;;19.00;7.30;;;;;;;-0.80;59.35;98287.50;4838398;27;20086;-80
2023/04/05 05:18:51;;;;;;;17.83;7.12;;;;;;;-0.24;57.65;98286.94;4371506;32;20168;-80
2023/04/05 05:21:18;;;;;;;18.05;6.65;;;;;;;0.18;55.06;98276.06;4378823;32;20157;-80
2023/04/05 05:23:45;;;;;;;;;;;;;;;0.11;55.15;98282.00;4378698;32;20579;-79
2023/04/05 05:26:13;;;;;;;18.25;7.28;;;;;;;0.25;54.02;98285.41;4377614;32;19962;-79
2023/04/05 05:28:40;;;;;;;14.98;6.12;;;;;;;0.75;52.45;98278.69;4378225;32;20103;-79
2023/04/05 05:31:06;;;;;;;;;;;;;;;1.01;52.20;98284.59;4378918;32;20144;-80
2023/04/05 05:33:33;;;;;;;15.35;6.57;;;;;;;1.01;51.98;98288.81;4378604;32;20044;-80
2023/04/05 05:36:02;;;;;;;15.50;7.18;;;;;;;1.34;51.33;98286.22;4378103;32;20165;-80
2023/04/05 05:38:29;;;;;;;17.35;7.22;;;;;;;2.35;48.75;98288.34;4378415;32;20173;-80
2023/04/05 05:40:56;;;;;;;;;;;;;;;2.43;47.48;98286.59;4380713;32;20091;-80
2023/04/05 05:43:23;;;;;;;14.50;6.20;;;;;;;2.36;47.38;98286.66;4379294;32;20247;-80
2023/04/05 05:45:50;;;;;;;15.20;6.18;;;;;;;2.55;46.51;98294.16;4380685;32;20090;-80
2023/04/05 05:48:17;;;;;;;14.90;6.28;;;;;;;3.17;45.32;98291.94;4380692;32;20119;-80
2023/04/05 05:50:47;;;;;;;;;;;;;;;3.03;45.73;98291.22;4380656;32;20094;-80
2023/04/05 05:53:15;;;;;;;16.67;6.53;;;;;;;2.49;46.56;98298.44;4380649;32;19989;-79
2023/04/05 05:55:42;;;;;;;16.85;7.07;;;;;;;2.97;45.86;98293.81;4380791;32;20109;-79
2023/04/05 05:58:09;;;;;;;;;;;;;;;4.00;43.38;98299.53;4380452;32;20106;-79
2023/04/05 06:00:35;;;;;;;16.58;6.60;;;;;;;4.00;42.99;98297.84;4380758;32;19986;-79
2023/04/05 06:03:09;;;;;;;15.43;6.82;;;;;;;4.49;41.99;98286.97;4379564;32;20438;-79
2023/04/05 06:05:36;;;;;;;15.98;6.70;;;;;;;3.97;42.27;98290.22;4380196;32;20113;-80
2023/04/05 06:08:03;;;;;;;;;;;;;;;4.55;42.09;98284.31;4390441;27;20106;-79
2023/04/05 06:10:30;;;;;;;15.52;6.57;;;;;;;4.77;41.65;98283.97;4380663;32;19986;-80
2023/04/05 06:12:57;;;;;;;16.73;6.87;;;;;;;4.21;42.03;98286.50;4367193;32;20103;-79
2023/04/05 06:15:24;;;;;;;16.05;6.90;;;;;;;4.41;41.81;98285.37;4381657;32;20063;-79
2023/04/05 06:17:51;;;;;;;17.90;7.18;;;;;;;4.43;42.19;98279.37;4381530;32;20516;-81
2023/04/05 06:20:18;;;;;;;15.10;6.72;;;;;;;4.73;41.35;98287.47;4383839;32;20129;-81
2023/04/05 06:22:45;;;;;;;14.75;6.97;;;;;;;5.23;40.45;98281.50;4382117;32;20105;-84
2023/04/05 06:25:12;;;;;;;16.37;7.35;;;;;;;5.21;40.31;98289.22;4380554;32;20086;-80
2023/04/05 06:27:39;;;;;;;15.43;5.93;;;;;;;4.41;41.29;98282.81;4380328;32;20122;-80
2023/04/05 06:30:07;;;;;;;16.67;7.10;;;;;;;4.91;41.03;98279.50;4380404;32;20134;-79
2023/04/05 06:32:34;;;;;;;15.90;6.95;;;;;;;4.39;41.18;98282.00;4380996;32;20152;-80
2023/04/05 06:35:02;;;;;;;15.50;6.80;;;;;;;4.47;41.44;98280.19;4380570;32;20152;-80
2023/04/05 06:37:30;;;;;;;15.27;6.68;;;;;;;3.84;42.42;98275.94;4367778;32;20180;-80
2023/04/05 06:39:58;;;;;;;16.33;6.47;;;;;;;3.99;41.66;98274.88;4382477;32;20094;-85
2023/04/05 06:42:25;;;;;;;16.77;6.32;;;;;;;4.77;41.01;98281.41;4381515;32;20422;-84
2023/04/05 06:44:54;;;;;;;12.82;5.80;;;;;;;4.24;41.04;98283.06;4384169;32;20055;-83
2023/04/05 06:47:20;;;;;;;14.15;6.43;;;;;;;3.61;42.18;98275.31;4380354;32;20102;-83
2023/04/05 06:49:47;;;;;;;;;;;;;;;4.16;42.06;98285.72;4380602;32;20102;-82
2023/04/05 06:52:14;;;;;;;15.40;6.15;;;;;;;3.54;42.59;98286.50;4381045;32;20666;-81
2023/04/05 06:54:41;;;;;;;15.35;6.07;;;;;;;4.07;41.68;98278.19;4381401;32;20054;-82
2023/04/05 06:57:07;;;;;;;;;;;;;;;3.74;42.53;98280.28;4383998;32;20146;-82
2023/04/05 06:59:35;;;;;;;17.15;6.95;;;;;;;3.95;41.84;98280.91;4381622;32;19978;-79
2023/04/05 07:02:02;;;;;;;18.05;7.25;;;;;;;4.44;41.40;98265.72;4380072;32;20484;-79
2023/04/05 07:04:34;;;;;;;14.90;6.32;;;;;;;4.53;41.33;98269.88;4380206;32;20118;-79
2023/04/05 07:07:02;;;;;;;16.27;6.62;;;;;;;4.34;41.80;98269.28;4379157;32;20090;-75
2023/04/05 07:09:31;;;;;;;13.07;5.60;;;;;;;4.08;42.14;98277.31;4366510;32;20095;-75
2023/04/05 07:12:00;;;;;;;14.05;6.43;;;;;;;4.07;42.00;98271.37;4380179;32;20090;-75
2023/04/05 07:14:29;;;;;;;15.30;6.18;;;;;;;4.69;40.67;98275.59;4379743;32;20100;-77
2023/04/05 07:16:56;;;;;;;16.40;6.65;;;;;;;4.02;41.40;98275.69;4380048;32;20091;-77
2023/04/05 07:19:23;;;;;;;14.60;6.15;;;;;;;3.90;41.93;98277.53;4379961;32;20468;-76
2023/04/05 07:21:50;;;;;;;12.77;5.90;;;;;;;4.02;41.98;98277.38;4379739;32;20133;-76
2023/04/05 07:24:16;;;;;;;;;;;;;;;4.19;41.70;98282.28;4380420;32;20090;-76
2023/04/05 07:26:43;;;;;;;15.68;6.28;;;;;;;3.99;41.94;98279.97;4380089;32;19993;-74
2023/04/05 07:29:11;;;;;;;15.93;6.37;;;;;;;3.88;41.96;98281.84;4379572;32;20107;-74
2023/04/05 07:31:41;;;;;;;16.52;6.40;;;;;;;3.69;42.05;98279.50;4380053;32;20091;-75
2023/04/05 07:34:08;;;;;;;13.57;6.10;;;;;;;4.22;41.84;98284.78;4379910;32;20086;-75
2023/04/05 07:36:36;;;;;;;15.02;5.85;;;;;;;4.74;40.37;98282.31;4378299;32;20158;-75
2023/04/05 07:39:04;;;;;;;16.40;6.28;;;;;;;4.54;41.51;98287.72;4379869;32;20098;-75
2023/04/05 07:41:31;;;;;;;16.58;6.37;;;;;;;4.72;41.19;98285.78;4380016;32;20083;-75
2023/04/05 07:43:58;;;;;;;14.82;6.40;;;;;;;5.01;39.36;98287.88;4379631;32;20086;-75
2023/04/05 07:46:26;;;;;;;;;;;;;;;5.22;38.95;98284.94;4380125;32;20157;-75
2023/04/05 07:48:53;;;;;;;;;;;;;;;5.12;39.61;98285.97;4379772;32;19982;-75
2023/04/05 07:51:20;;;;;;;14.23;6.28;;;;;;;6.37;39.04;98291.22;4379927;32;20004;-75
2023/04/05 07:53:47;;;;;;;;;;;;;;;6.43;37.22;98287.69;4380051;32;20075;-76
2023/04/05 07:56:15;;;;;;;15.50;6.12;;;;;;;6.26;37.46;98285.47;4379298;32;19974;-76
2023/04/05 07:58:42;;;;;;;14.38;6.03;;;;;;;5.61;38.78;98285.91;4379719;32;20102;-76
2023/04/05 08:01:10;;;;;;;13.52;6.10;;;;;;;6.37;36.70;98288.66;4379851;32;20086;-75
2023/04/05 08:03:38;;;;;;;14.48;6.22;;;;;;;6.77;37.20;98282.62;4365276;32;20090;-76
2023/04/05 08:06:18;;;;;;;14.10;6.20;;;;;;;6.72;36.37;98287.03;4379422;32;20108;-76
2023/04/05 08:08:46;;;;;;;13.85;6.87;;;;;;;7.89;34.54;98272.88;4379712;32;20106;-75
2023/04/05 08:11:13;;;;;;;15.35;6.05;;;;;;;7.04;35.59;98278.56;4365892;32;20458;-76
2023/04/05 08:13:40;;;;;;;;;;;;;;;6.20;36.79;98280.50;4379923;32;20429;-76
2023/04/05 08:16:08;;;;;;;14.18;6.03;;;;;;;6.90;35.92;98284.00;4379528;32;19975;-76
2023/04/05 08:18:35;;;;;;;13.65;5.80;;;;;;;6.42;36.67;98286.84;4365386;32;20107;-76
2023/04/05 08:21:02;;;;;;;12.65;6.18;;;;;;;6.79;36.25;98291.09;4379694;32;20090;-76
2023/04/05 08:23:30;;;;;;;12.93;6.20;;;;;;;7.68;34.33;98287.16;4379537;32;20083;-76
2023/04/05 08:25:57;;;;;;;13.23;4.85;;;;;;;7.34;35.84;98282.91;4379205;32;20153;-76
2023/04/05 08:28:24;;;;;;;17.02;6.20;;;;;;;6.84;36.65;98290.12;4379099;32;20099;-76
2023/04/05 08:30:55;;;;;;;14.57;6.25;;;;;;;6.51;37.01;98272.97;4379457;32;20145;-75
2023/04/05 08:33:23;;;;;;;13.27;5.50;;;;;;;7.31;34.81;98287.25;4379071;32;20140;-76
2023/04/05 08:35:50;;;;;;;11.52;4.93;;;;;;;6.46;37.14;98287.59;4379253;32;20099;-76
2023/04/05 08:38:17;;;;;;;12.75;5.62;;;;;;;5.89;37.02;98282.81;4378155;32;20426;-76
2023/04/05 08:40:46;;;;;;;14.27;5.90;;;;;;;5.99;38.38;98284.34;4378176;32;20078;-76
2023/04/05 08:43:24;;;;;;;12.55;5.60;;;;;;;6.40;36.63;98288.59;4367539;32;20109;-81
2023/04/05 08:45:52;;;;;;;13.95;6.45;;;;;;;7.17;33.97;98283.31;4381724;32;20067;-81
2023/04/05 08:48:19;;;;;;;14.10;6.55;;;;;;;6.64;36.67;98284.63;4380425;32;20091;-81
2023/04/05 08:50:53;;;;;;;12.75;6.10;;;;;;;6.24;37.07;98277.81;4382243;32;20087;-81
2023/04/05 08:53:20;;;;;;;12.32;5.72;;;;;;;6.81;37.50;98276.56;4379890;32;20141;-81
2023/04/05 08:55:55;;;;;;;11.32;4.95;;;;;;;6.67;36.13;98266.59;4367345;32;20103;-81
2023/04/05 08:58:23;;;;;;;13.45;5.95;;;;;;;7.22;34.69;98289.19;4391564;27;20111;-80
2023/04/05 09:00:50;;;;;;;13.32;6.72;;;;;;;7.66;33.40;98276.06;4364956;32;20103;-81
2023/04/05 09:03:22;;;;;;;10.90;4.05;;;;;;;7.46;35.21;98276.59;4379323;32;20417;-81
2023/04/05 09:05:50;;;;;;;11.90;4.45;;;;;;;6.19;35.95;98271.13;4378971;32;20117;-80
2023/04/05 09:08:20;;;;;;;11.30;4.53;;;;;;;5.46;37.66;98276.81;4378951;32;20109;-80
2023/04/05 09:10:50;;;;;;;13.25;5.90;;;;;;;5.16;37.96;98282.47;4365623;32;20090;-80
2023/04/05 09:13:17;;;;;;;13.18;5.75;;;;;;;6.05;37.38;98277.38;4365705;32;20147;-80
2023/04/05 09:15:45;;;;;;;12.95;5.90;;;;;;;7.00;35.97;98287.19;4380450;32;20157;-81
2023/04/05 09:18:13;;;;;;;13.57;6.18;;;;;;;6.67;35.77;98277.69;4381472;32;20149;-81
2023/04/05 09:21:00;;;;;;;12.43;4.70;;;;;;;7.37;34.52;98280.25;4383723;32;20059;-81
2023/04/05 09:23:27;;;;;;;14.13;6.22;;;;;;;7.15;34.04;98285.09;4381046;32;20078;-80
2023/04/05 09:25:54;;;;;;;14.73;5.82;;;;;;;6.56;35.82;98274.53;4381067;32;20113;-81
2023/04/05 09:28:21;;;;;;;15.25;7.03;;;;;;;7.07;35.86;98273.34;4380408;32;20081;-80
2023/04/05 09:30:48;;;;;;;14.13;6.37;;;;;;;8.68;32.39;98268.75;4381495;32;20087;-80
2023/04/05 09:33:21;;;;;;;12.45;5.45;;;;;;;7.49;33.58;98269.66;4380689;32;20082;-81
2023/04/05 09:35:50;;;;;;;14.38;5.60;;;;;;;7.60;34.67;98277.06;4380482;32;20102;-81
2023/04/05 09:38:17;;;;;;;14.60;6.10;;;;;;;6.34;36.35;98266.50;4379467;32;20099;-80
2023/04/05 09:40:48;;;;;;;12.95;6.12;;;;;;;7.52;35.33;98264.44;4380706;32;20105;-80
2023/04/05 09:43:37;;;;;;;13.98;6.30;;;;;;;7.58;33.81;98273.72;4380367;32;20087;-80
2023/04/05 09:46:04;;;;;;;14.07;6.12;;;;;;;7.81;33.07;98268.78;4380546;32;20098;-81
2023/04/05 09:51:06;;;;;;;15.80;6.57;;;;;;;8.94;32.29;98260.22;4363964;32;20259;-82
2023/04/05 09:53:36;;;;;;;15.13;6.10;;;;;;;9.41;30.76;98265.50;4365637;32;20091;-82
2023/04/05 09:56:12;;;;;;;14.00;5.60;;;;;;;9.03;31.88;98261.63;4365329;32;20115;-81
2023/04/05 09:58:39;;;;;;;12.95;6.32;;;;;;;7.60;33.67;98255.69;4376219;27;20120;-81
2023/04/05 10:01:07;;;;;;;13.45;6.45;;;;;;;8.36;32.92;98244.06;4380165;32;20102;-82
2023/04/05 10:03:46;;;;;;;11.70;6.15;;;;;;;9.05;33.83;98257.31;4380199;32;20125;-81
2023/04/05 10:06:17;;;;;;;13.52;6.62;;;;;;;8.23;32.70;98250.44;4367087;32;20454;-81
2023/04/05 10:08:48;;;;;;;13.95;5.72;;;;;;;9.74;32.69;98249.75;4380172;32;20146;-81
2023/04/05 10:11:17;;;;;;;14.73;6.50;;;;;;;8.24;33.37;98244.41;4380146;32;20102;-81
2023/04/05 10:13:44;;;;;;;12.68;5.85;;;;;;;9.31;32.17;98248.69;4380292;32;20161;-82
2023/04/05 10:16:16;;;;;;;13.00;6.72;;;;;;;10.81;29.73;98245.66;4366805;32;20102;-81
2023/04/05 10:18:48;;;;;;;14.13;6.97;;;;;;;10.21;30.06;98235.09;4380266;32;20110;-81
2023/04/05 10:21:20;;;;;;;12.90;6.40;;;;;;;9.68;31.29;98237.09;4366834;32;20150;-81
2023/04/05 10:23:54;;;;;;;13.55;5.68;;;;;;;8.49;31.64;98233.37;4380196;32;20086;-82
2023/04/05 10:26:37;;;;;;;15.27;5.93;;;;;;;8.84;32.37;98229.69;4366583;32;20110;-82
2023/04/05 10:29:11;;;;;;;12.80;6.15;;;;;;;9.73;29.98;98233.44;4380176;32;20114;-82
2023/04/05 10:31:54;;;;;;;13.23;6.28;;;;;;;10.65;29.49;98240.31;4380053;32;20094;-82
2023/04/05 10:34:31;;;;;;;12.07;5.28;;;;;;;10.66;30.37;98241.97;4380467;32;20145;-82
2023/04/05 10:37:00;;;;;;;13.38;6.35;;;;;;;10.64;29.70;98238.63;4379211;32;20098;-81
2023/04/05 10:39:34;;;;;;;13.82;6.00;;;;;;;10.69;28.78;98234.94;4379372;32;20466;-81
2023/04/05 10:42:09;;;;;;;11.80;5.50;;;;;;;9.38;31.30;98231.28;4366618;32;20091;-81
2023/04/05 10:44:36;;;;;;;12.65;5.70;;;;;;;10.39;28.21;98231.84;4379788;32;20222;-81
2023/04/05 10:47:04;;;;;;;14.80;6.25;;;;;;;10.62;28.41;98236.06;4366572;32;20106;-81
2023/04/05 10:49:52;;;;;;;12.43;5.93;;;;;;;11.28;27.24;98234.22;4379863;32;20117;-81
2023/04/05 10:52:21;;;;;;;10.77;4.55;;;;;;;11.37;26.80;98225.22;4366214;32;20095;-81
2023/04/05 10:54:48;;;;;;;12.95;6.03;;;;;;;8.06;33.12;98225.22;4378823;32;20087;-81
2023/04/05 10:57:18;;;;;;;13.45;6.45;;;;;;;8.28;32.85;98227.13;4380000;32;20156;-81
2023/04/05 10:59:46;;;;;;;13.05;5.90;;;;;;;7.73;34.33;98224.47;4379316;32;20108;-80
2023/04/05 11:02:13;;;;;;;14.52;5.82;;;;;;;8.66;31.60;98218.25;4380076;32;20097;-80
2023/04/05 11:04:40;;;;;;;12.68;5.35;;;;;;;8.09;33.61;98219.16;4366634;32;20148;-80
2023/04/05 11:07:18;;;;;;;14.40;6.28;;;;;;;7.63;32.79;98214.50;4378699;32;20107;-80
2023/04/05 11:09:59;;;;;;;13.50;6.05;;;;;;;8.23;32.39;98208.47;4366226;32;20125;-80
2023/04/05 11:12:44;;;;;;;14.20;6.22;;;;;;;9.50;32.02;98211.09;4366353;32;20094;-80
2023/04/05 11:15:26;;;;;;;14.68;6.62;;;;;;;8.74;32.05;98218.88;4379843;32;20161;-80
2023/04/05 11:18:03;;;;;;;13.07;6.75;;;;;;;10.29;28.92;98215.03;4379856;32;20115;-80
2023/04/05 11:20:54;;;;;;;14.63;6.90;;;;;;;10.40;29.97;98209.47;4379743;32;20094;-81
2023/04/05 11:23:23;;;;;;;12.55;5.85;;;;;;;9.71;31.03;98211.22;4380222;32;20095;-80
2023/04/05 11:26:05;;;;;;;12.82;6.68;;;;;;;9.38;32.34;98218.41;4379982;32;20099;-81
2023/04/05 11:28:38;;;;;;;14.18;6.25;;;;;;;9.15;32.00;98208.94;4379550;32;20118;-80
2023/04/05 11:31:18;;;;;;;14.43;6.50;;;;;;;9.63;31.67;98201.19;4379806;32;20442;-81
2023/04/05 11:34:08;;;;;;;16.02;6.57;;;;;;;10.14;30.86;98206.12;4379839;32;20140;-81
2023/04/05 11:36:37;;;;;;;13.98;6.22;;;;;;;10.09;30.87;98207.19;4379514;32;20113;-80
2023/04/05 11:39:22;;;;;;;13.18;5.90;;;;;;;9.88;29.85;98205.41;4379263;32;20102;-80
2023/04/05 11:42:03;;;;;;;14.70;5.95;;;;;;;10.35;28.61;98204.50;4379636;32;20098;-80
2023/04/05 11:44:47;;;;;;;12.57;5.78;;;;;;;9.14;29.92;98192.59;4379968;32;20095;-81
2023/04/05 11:47:21;;;;;;;13.45;5.55;;;;;;;10.53;29.60;98189.19;4366305;32;20125;-80
2023/04/05 11:49:50;;;;;;;13.32;6.20;;;;;;;9.38;31.50;98198.66;4379024;32;20118;-80
2023/04/05 11:52:19;;;;;;;11.77;5.47;;;;;;;10.47;32.00;98203.16;4379958;32;20094;-82
2023/04/05 11:54:47;;;;;;;13.65;5.90;;;;;;;9.44;31.71;98198.41;4367238;32;20137;-82
2023/04/05 11:57:18;;;;;;;14.93;5.97;;;;;;;8.36;31.97;98199.50;4366134;32;20083;-81
2023/04/05 11:59:45;;;;;;;12.63;6.10;;;;;;;8.29;32.81;98191.09;4379129;32;20145;-81
2023/04/05 12:02:12;;;;;;;13.05;5.87;;;;;;;9.89;31.02;98200.25;4379342;32;20091;-81
2023/04/05 12:04:39;;;;;;;14.05;5.72;;;;;;;10.75;28.36;98194.31;4379892;32;20492;-81
2023/04/05 12:07:16;;;;;;;14.65;5.55;;;;;;;11.03;27.44;98194.84;4379564;32;20113;-81
2023/04/05 12:10:14;;;;;;;12.27;5.78;;;;;;;10.75;28.89;98182.25;4378979;32;20664;-82
2023/04/05 12:12:43;;;;;;;11.32;5.18;;;;;;;10.09;28.65;98182.25;4379795;32;20449;-81
2023/04/05 12:15:13;;;;;;;12.35;5.18;;;;;;;9.71;29.41;98182.88;4379633;32;20105;-82
2023/04/05 12:17:42;;;;;;;11.80;4.85;;;;;;;8.61;29.84;98190.12;4381993;32;20116;-81
2023/04/05 12:20:11;;;;;;;11.95;5.03;;;;;;;9.32;30.47;98188.56;4382161;32;20102;-81
2023/04/05 12:22:40;;;;;;;12.98;5.20;;;;;;;9.79;29.32;98181.69;4381114;32;20125;-81
2023/04/05 12:25:08;;;;;;;11.18;5.07;;;;;;;10.53;27.42;98184.03;4380593;32;20091;-81
2023/04/05 12:27:35;;;;;;;11.18;4.45;;;;;;;10.09;27.41;98173.69;4380886;32;20152;-81
2023/04/05 12:30:06;;;;;;;10.77;4.60;;;;;;;10.24;28.71;98174.88;4380450;32;20094;-81
2023/04/05 12:32:50;;;;;;;11.05;4.45;;;;;;;10.35;28.12;98170.97;4379980;32;20130;-82
2023/04/05 12:35:21;;;;;;;11.25;4.55;;;;;;;9.57;29.54;98168.78;4368918;32;20173;-83
2023/04/05 12:37:49;;;;;;;11.30;4.20;;;;;;;10.63;27.79;98165.53;4379302;32;20406;-82
2023/04/05 12:40:21;;;;;;;7.97;3.28;;;;;;;10.50;28.36;98166.91;4365729;32;20125;-82
2023/04/05 12:42:49;;;;;;;9.48;3.65;;;;;;;8.82;28.06;98162.81;4380069;32;20152;-80
2023/04/05 12:45:17;;;;;;;11.48;4.47;;;;;;;9.02;28.24;98158.75;4378765;32;20607;-81
2023/04/05 12:47:56;;;;;;;10.05;4.05;;;;;;;9.37;28.44;98155.78;4379415;32;20087;-82
2023/04/05 12:50:30;;;;;;;9.52;4.03;;;;;;;8.86;30.74;98151.56;4381446;32;20221;-80
2023/04/05 12:53:04;;;;;;;10.55;3.33;;;;;;;9.78;27.25;98146.53;4381718;32;20462;-80
2023/04/05 12:55:31;;;;;;;10.50;4.15;;;;;;;10.03;28.58;98155.87;4382506;32;20110;-80
2023/04/05 12:58:00;;;;;;;10.40;4.00;;;;;;;10.46;28.19;98146.47;4382494;32;20140;-79
2023/04/05 13:00:28;;;;;;;10.27;3.92;;;;;;;9.62;29.87;98145.41;4380721;32;20177;-79
2023/04/05 13:02:56;;;;;;;10.10;4.00;;;;;;;9.95;27.33;98150.19;4382904;32;20126;-79
2023/04/05 13:05:26;;;;;;;17.85;4.12;;;;;;;10.91;27.58;98141.97;4382832;32;20082;-79
2023/04/05 13:07:53;;;;;;;11.82;4.03;;;;;;;10.17;29.58;98145.03;4368369;32;20078;-83
2023/04/05 13:10:22;;;;;;;9.27;3.80;;;;;;;10.10;29.46;98137.56;4373148;32;20152;-84
2023/04/05 13:12:49;;;;;;;9.15;3.90;;;;;;;9.88;30.27;98136.69;4390487;32;20063;-84
2023/04/05 13:15:17;;;;;;;9.77;4.00;;;;;;;10.07;28.09;98134.22;4390625;32;20146;-83
2023/04/05 13:17:44;;;;;;;10.38;4.00;;;;;;;9.84;29.94;98130.81;4384053;32;20086;-86
2023/04/05 13:20:11;;;;;;;10.20;3.70;;;;;;;10.45;30.61;98129.31;4380322;32;20099;-86
2023/04/05 13:22:38;;;;;;;9.38;3.70;;;;;;;9.11;31.57;98124.97;4380826;32;20087;-87
2023/04/05 13:25:06;;;;;;;8.48;3.60;;;;;;;9.41;33.43;98120.44;4380824;32;20091;-85
2023/04/05 13:27:32;;;;;;;10.85;3.35;;;;;;;8.85;31.14;98125.87;4380367;32;20113;-83
2023/04/05 13:29:59;;;;;;;10.40;3.67;;;;;;;8.80;33.62;98117.47;4380721;32;20169;-81
2023/04/05 13:32:26;;;;;;;;;;;;;;;9.67;31.42;98116.88;4382474;32;20095;-82
2023/04/05 13:34:53;;;;;;;9.57;3.58;;;;;;;9.77;30.75;98120.78;4386049;32;19963;-81
2023/04/05 13:37:20;;;;;;;;;;;;;;;9.84;30.83;98119.66;4383671;32;20063;-82
2023/04/05 13:39:46;;;;;;;9.95;3.95;;;;;;;9.66;30.86;98118.63;4384067;32;20241;-83
2023/04/05 13:42:13;;;;;;;11.80;3.62;;;;;;;9.52;30.77;98116.56;4369705;32;20110;-83
2023/04/05 13:44:40;;;;;;;8.00;3.37;;;;;;;8.82;30.84;98116.50;4383554;32;20105;-83
2023/04/05 13:47:07;;;;;;;;;;;;;;;8.87;31.50;98122.38;4384027;32;20078;-83
2023/04/05 13:49:34;;;;;;;9.02;3.47;;;;;;;9.66;30.74;98118.63;4382150;32;19954;-81
2023/04/05 13:52:01;;;;;;;8.77;3.50;;;;;;;9.08;30.62;98114.78;4368251;32;20119;-82
2023/04/05 13:54:28;;;;;;;8.48;3.33;;;;;;;9.31;30.72;98101.91;4382621;32;20153;-82
2023/04/05 13:56:55;;;;;;;;;;;;;;;9.19;31.25;98097.22;4382689;32;20141;-83
2023/04/05 13:59:22;;;;;;;10.43;3.40;;;;;;;9.20;31.01;98110.03;4386444;32;20028;-80
2023/04/05 14:01:49;;;;;;;9.13;3.40;;;;;;;9.02;31.35;98105.53;4383104;32;20175;-82
2023/04/05 14:04:17;;;;;;;8.45;3.30;;;;;;;9.18;32.38;98105.84;4384932;32;20110;-83
2023/04/05 14:06:44;;;;;;;9.25;3.20;;;;;;;8.75;32.04;98106.50;4387924;32;20081;-82
2023/04/05 14:09:11;;;;;;;9.57;3.10;;;;;;;9.27;32.08;98103.78;4383335;32;20103;-82
2023/04/05 14:11:38;;;;;;;7.78;2.60;;;;;;;9.15;31.65;98111.09;4382923;32;20113;-81
2023/04/05 14:14:05;;;;;;;11.00;3.50;;;;;;;8.62;32.78;98104.38;4371043;32;20105;-81
2023/04/05 14:16:32;;;;;;;9.95;3.40;;;;;;;9.11;31.11;98110.34;4382619;32;20094;-82
2023/04/05 14:18:59;;;;;;;9.43;3.37;;;;;;;9.17;30.63;98114.47;4380508;32;20111;-82
2023/04/05 14:21:26;;;;;;;10.02;3.37;;;;;;;9.41;30.41;98112.72;4381595;32;20113;-82
2023/04/05 14:23:55;;;;;;;9.13;3.15;;;;;;;9.36;30.40;98110.31;4380526;32;20151;-82
2023/04/05 14:26:25;;;;;;;7.90;2.75;;;;;;;9.92;29.75;98101.34;4380628;32;20087;-82
2023/04/05 14:28:52;;;;;;;7.20;2.85;;;;;;;8.66;31.92;98115.38;4381264;32;20165;-83
2023/04/05 14:31:19;;;;;;;8.65;3.50;;;;;;;8.28;31.75;98103.75;4381307;32;20152;-82
2023/04/05 14:33:46;;;;;;;9.07;3.12;;;;;;;8.54;30.70;98100.38;4381327;32;20058;-82
2023/04/05 14:36:13;;;;;;;;;;;;;;;8.40;31.89;98101.69;4380890;32;20079;-83
2023/04/05 14:38:40;;;;;;;9.27;3.55;;;;;;;8.52;31.17;98102.16;4381273;32;20306;-83
2023/04/05 14:41:07;;;;;;;8.73;3.05;;;;;;;9.38;29.82;98105.13;4389632;32;20059;-81
2023/04/05 14:43:34;;;;;;;8.48;3.12;;;;;;;8.76;30.65;98100.47;4376943;32;20091;-79
2023/04/05 14:46:01;;;;;;;9.32;3.37;;;;;;;8.26;32.33;98093.53;4393524;32;20063;-79
2023/04/05 14:48:30;;;;;;;8.57;2.95;;;;;;;8.24;31.79;98103.03;4392255;32;20090;-79
2023/04/05 14:50:58;;;;;;;9.80;3.62;;;;;;;7.99;32.25;98105.53;4386358;32;20111;-81
2023/04/05 14:53:25;;;;;;;9.30;3.40;;;;;;;8.42;32.79;98101.63;4383335;32;20090;-81
2023/04/05 14:55:51;;;;;;;9.75;3.62;;;;;;;7.78;33.75;98095.94;4384276;32;20066;-81